sensor_id;sensor_type;location;lat;lon;timestamp;pressure;altitude;pressure_sealevel;temperature;humidity
67430;BME280;54298;52.076;5.264;2023-05-27T00:00:09;102947.0;;;11.19;66.8
67430;BME280;54298;52.076;5.264;2023-05-27T00:01:45;102943.0;;;11.2;66.72
67430;BME280;54298;52.076;5.264;2023-05-27T00:03:21;102947.0;;;11.23;66.58
67430;BME280;54298;52.076;5.264;2023-05-27T00:06:34;102942.0;;;10.89;67.72
67430;BME280;54298;52.076;5.264;2023-05-27T00:08:10;102952.0;;;11.02;67.42
67430;BME280;54298;52.076;5.264;2023-05-27T00:09:46;102952.0;;;11.02;67.36
67430;BME280;54298;52.076;5.264;2023-05-27T00:12:59;102951.0;;;11.07;67.09
67430;BME280;54298;52.076;5.264;2023-05-27T00:14:36;102952.0;;;10.78;67.84
67430;BME280;54298;52.076;5.264;2023-05-27T00:16:12;102949.0;;;10.98;67.67
67430;BME280;54298;52.076;5.264;2023-05-27T00:19:24;102951.0;;;10.84;68.11
67430;BME280;54298;52.076;5.264;2023-05-27T00:21:00;102953.0;;;10.93;67.85
67430;BME280;54298;52.076;5.264;2023-05-27T00:22:36;102951.0;;;10.9;67.73
67430;BME280;54298;52.076;5.264;2023-05-27T00:24:13;102950.0;;;10.96;67.62
67430;BME280;54298;52.076;5.264;2023-05-27T00:27:25;102947.0;;;10.9;68.13
67430;BME280;54298;52.076;5.264;2023-05-27T00:29:01;102942.0;;;10.88;68.02
67430;BME280;54298;52.076;5.264;2023-05-27T00:30:37;102942.0;;;10.83;68.41
67430;BME280;54298;52.076;5.264;2023-05-27T00:33:49;102940.00000000001;;;10.87;68.05
67430;BME280;54298;52.076;5.264;2023-05-27T00:35:26;102934.99999999999;;;10.78;68.33
67430;BME280;54298;52.076;5.264;2023-05-27T00:37:04;102933.99999999999;;;10.85;68.27
67430;BME280;54298;52.076;5.264;2023-05-27T00:40:20;102929.0;;;10.74;68.44
67430;BME280;54298;52.076;5.264;2023-05-27T00:41:57;102929.0;;;10.76;68.44
67430;BME280;54298;52.076;5.264;2023-05-27T00:43:33;102921.0;;;10.74;68.3
67430;BME280;54298;52.076;5.264;2023-05-27T00:48:24;102924.0;;;10.69;68.83
67430;BME280;54298;52.076;5.264;2023-05-27T00:50:02;102920.0;;;10.74;68.56
67430;BME280;54298;52.076;5.264;2023-05-27T00:51:39;102921.0;;;10.57;69.25
67430;BME280;54298;52.076;5.264;2023-05-27T00:54:52;102917.0;;;10.64;68.98
67430;BME280;54298;52.076;5.264;2023-05-27T00:56:29;102921.0;;;10.6;69.02
67430;BME280;54298;52.076;5.264;2023-05-27T00:58:05;102915.00000000001;;;10.56;69.27
67430;BME280;54298;52.076;5.264;2023-05-27T00:59:41;102914.00000000001;;;10.49;69.17
67430;BME280;54298;52.076;5.264;2023-05-27T01:02:53;102908.0;;;10.52;69.28
67430;BME280;54298;52.076;5.264;2023-05-27T01:04:29;102903.0;;;10.44;69.55
67430;BME280;54298;52.076;5.264;2023-05-27T01:06:14;102902.0;;;10.55;69.22
67430;BME280;54298;52.076;5.264;2023-05-27T01:09:54;102897.0;;;10.43;69.84
67430;BME280;54298;52.076;5.264;2023-05-27T01:11:46;102906.0;;;10.48;69.62
67430;BME280;54298;52.076;5.264;2023-05-27T01:13:31;102908.0;;;10.48;69.66
67430;BME280;54298;52.076;5.264;2023-05-27T01:15:11;102908.99999999999;;;10.17;70.34
67430;BME280;54298;52.076;5.264;2023-05-27T01:16:48;102908.0;;;10.31;69.83
67430;BME280;54298;52.076;5.264;2023-05-27T01:20:07;102909.99999999999;;;10.31;70.06
67430;BME280;54298;52.076;5.264;2023-05-27T01:21:47;102908.99999999999;;;10.17;70.56
67430;BME280;54298;52.076;5.264;2023-05-27T01:23:24;102913.00000000001;;;10.24;70.38
67430;BME280;54298;52.076;5.264;2023-05-27T01:25:00;102911.99999999999;;;10.14;70.7
67430;BME280;54298;52.076;5.264;2023-05-27T01:28:13;102913.00000000001;;;9.98;71.11
67430;BME280;54298;52.076;5.264;2023-05-27T01:29:49;102907.0;;;10.17;70.72
67430;BME280;54298;52.076;5.264;2023-05-27T01:31:29;102911.99999999999;;;10.11;70.88
67430;BME280;54298;52.076;5.264;2023-05-27T01:33:15;102906.0;;;10.02;71.08
67430;BME280;54298;52.076;5.264;2023-05-27T01:36:40;102907.0;;;9.96;71.45
67430;BME280;54298;52.076;5.264;2023-05-27T01:38:23;102906.0;;;9.92;71.66
67430;BME280;54298;52.076;5.264;2023-05-27T01:40:01;102905.0;;;9.75;72.12
67430;BME280;54298;52.076;5.264;2023-05-27T01:41:39;102906.0;;;9.73;72.42
67430;BME280;54298;52.076;5.264;2023-05-27T01:44:55;102909.99999999999;;;9.85;72.02
67430;BME280;54298;52.076;5.264;2023-05-27T01:46:32;102905.0;;;9.73;72.64
67430;BME280;54298;52.076;5.264;2023-05-27T01:48:09;102907.0;;;9.8;72.47
67430;BME280;54298;52.076;5.264;2023-05-27T01:51:21;102909.99999999999;;;9.78;72.44
67430;BME280;54298;52.076;5.264;2023-05-27T01:52:57;102905.0;;;9.66;72.55
67430;BME280;54298;52.076;5.264;2023-05-27T01:54:33;102914.00000000001;;;9.72;72.63
67430;BME280;54298;52.076;5.264;2023-05-27T01:56:09;102907.0;;;9.72;72.48
67430;BME280;54298;52.076;5.264;2023-05-27T01:59:22;102905.0;;;9.63;73.23
67430;BME280;54298;52.076;5.264;2023-05-27T02:00:58;102917.0;;;9.6;73.03
67430;BME280;54298;52.076;5.264;2023-05-27T02:02:34;102919.0;;;9.57;73.16
67430;BME280;54298;52.076;5.264;2023-05-27T02:05:46;102923.0;;;9.51;73.63
67430;BME280;54298;52.076;5.264;2023-05-27T02:07:22;102925.0;;;9.48;73.64
67430;BME280;54298;52.076;5.264;2023-05-27T02:08:58;102924.0;;;9.46;73.67
67430;BME280;54298;52.076;5.264;2023-05-27T02:12:11;102927.0;;;9.43;73.86
67430;BME280;54298;52.076;5.264;2023-05-27T02:13:47;102925.0;;;9.42;73.87
67430;BME280;54298;52.076;5.264;2023-05-27T02:15:23;102928.0;;;9.25;74.63
67430;BME280;54298;52.076;5.264;2023-05-27T02:18:35;102928.0;;;9.36;74.22
67430;BME280;54298;52.076;5.264;2023-05-27T02:20:11;102927.0;;;9.24;74.7
67430;BME280;54298;52.076;5.264;2023-05-27T02:21:48;102925.0;;;9.16;75.14
67430;BME280;54298;52.076;5.264;2023-05-27T02:23:24;102920.0;;;9.28;74.84
67430;BME280;54298;52.076;5.264;2023-05-27T02:26:36;102920.0;;;9.27;74.72
67430;BME280;54298;52.076;5.264;2023-05-27T02:28:12;102918.0;;;9.23;74.66
67430;BME280;54298;52.076;5.264;2023-05-27T02:29:48;102911.99999999999;;;9.19;75.14
67430;BME280;54298;52.076;5.264;2023-05-27T02:33:01;102917.0;;;9.22;74.89
67430;BME280;54298;52.076;5.264;2023-05-27T02:34:37;102908.0;;;9.25;74.74
67430;BME280;54298;52.076;5.264;2023-05-27T02:36:13;102908.0;;;9.16;75.03
67430;BME280;54298;52.076;5.264;2023-05-27T02:39:25;102904.0;;;9.13;75.23
67430;BME280;54298;52.076;5.264;2023-05-27T02:41:01;102908.99999999999;;;8.98;75.78
67430;BME280;54298;52.076;5.264;2023-05-27T02:42:38;102902.0;;;8.98;75.94
67430;BME280;54298;52.076;5.264;2023-05-27T02:45:50;102903.0;;;8.93;75.99
67430;BME280;54298;52.076;5.264;2023-05-27T02:47:26;102907.0;;;8.88;76.22
67430;BME280;54298;52.076;5.264;2023-05-27T02:49:02;102908.0;;;8.86;76.33
67430;BME280;54298;52.076;5.264;2023-05-27T02:50:39;102904.0;;;8.82;76.48
67430;BME280;54298;52.076;5.264;2023-05-27T02:53:51;102903.0;;;8.76;76.83
67430;BME280;54298;52.076;5.264;2023-05-27T02:55:27;102905.0;;;8.69;77.05
67430;BME280;54298;52.076;5.264;2023-05-27T02:57:04;102901.0;;;8.71;77.09
67430;BME280;54298;52.076;5.264;2023-05-27T03:00:16;102901.0;;;8.76;76.84
67430;BME280;54298;52.076;5.264;2023-05-27T03:01:53;102903.0;;;8.64;77.3
67430;BME280;54298;52.076;5.264;2023-05-27T03:03:29;102897.0;;;8.67;77.2
67430;BME280;54298;52.076;5.264;2023-05-27T03:06:42;102900.0;;;8.65;77.28
67430;BME280;54298;52.076;5.264;2023-05-27T03:08:18;102906.0;;;8.56;77.61
67430;BME280;54298;52.076;5.264;2023-05-27T03:09:54;102908.0;;;8.49;77.94
67430;BME280;54298;52.076;5.264;2023-05-27T03:11:30;102906.0;;;8.42;78.22
67430;BME280;54298;52.076;5.264;2023-05-27T03:14:43;102907.0;;;8.45;78.19
67430;BME280;54298;52.076;5.264;2023-05-27T03:16:19;102907.0;;;8.44;78.16
67430;BME280;54298;52.076;5.264;2023-05-27T03:17:56;102914.00000000001;;;8.41;78.03
67430;BME280;54298;52.076;5.264;2023-05-27T03:21:08;102915.00000000001;;;8.36;78.44
67430;BME280;54298;52.076;5.264;2023-05-27T03:22:45;102917.0;;;8.27;78.83
67430;BME280;54298;52.076;5.264;2023-05-27T03:24:21;102920.0;;;8.25;78.83
67430;BME280;54298;52.076;5.264;2023-05-27T03:27:33;102917.0;;;8.3;78.77
67430;BME280;54298;52.076;5.264;2023-05-27T03:29:09;102914.00000000001;;;8.38;78.36
67430;BME280;54298;52.076;5.264;2023-05-27T03:30:45;102921.0;;;8.18;79.05
67430;BME280;54298;52.076;5.264;2023-05-27T03:33:58;102920.0;;;8.26;78.88
67430;BME280;54298;52.076;5.264;2023-05-27T03:35:34;102911.99999999999;;;8.2;79.36
67430;BME280;54298;52.076;5.264;2023-05-27T03:37:10;102917.0;;;8.1;79.7
67430;BME280;54298;52.076;5.264;2023-05-27T03:38:46;102916.00000000001;;;8.05;79.77
67430;BME280;54298;52.076;5.264;2023-05-27T03:41:58;102907.0;;;7.99;79.94
67430;BME280;54298;52.076;5.264;2023-05-27T03:43:35;102902.0;;;7.92;79.97
67430;BME280;54298;52.076;5.264;2023-05-27T03:45:11;102904.0;;;7.98;79.91
67430;BME280;54298;52.076;5.264;2023-05-27T03:48:23;102899.0;;;7.92;80.25
67430;BME280;54298;52.076;5.264;2023-05-27T03:50:00;102899.0;;;7.91;80.53
67430;BME280;54298;52.076;5.264;2023-05-27T03:51:36;102895.0;;;7.9;80.47
67430;BME280;54298;52.076;5.264;2023-05-27T03:54:48;102886.99999999999;;;7.89;80.55
67430;BME280;54298;52.076;5.264;2023-05-27T03:56:24;102886.99999999999;;;7.96;80.38
67430;BME280;54298;52.076;5.264;2023-05-27T03:58:00;102891.00000000001;;;8.05;80.13
67430;BME280;54298;52.076;5.264;2023-05-27T03:59:36;102888.00000000001;;;8.14;79.78
67430;BME280;54298;52.076;5.264;2023-05-27T04:02:49;102889.00000000001;;;8.05;80.05
67430;BME280;54298;52.076;5.264;2023-05-27T04:04:25;102890.00000000001;;;8.07;80.11
67430;BME280;54298;52.076;5.264;2023-05-27T04:06:01;102883.0;;;8.18;79.74
67430;BME280;54298;52.076;5.264;2023-05-27T04:09:13;102888.00000000001;;;8.13;79.91
67430;BME280;54298;52.076;5.264;2023-05-27T04:10:49;102894.0;;;8.14;79.94
67430;BME280;54298;52.076;5.264;2023-05-27T04:12:25;102891.00000000001;;;8.19;79.95
67430;BME280;54298;52.076;5.264;2023-05-27T04:15:38;102889.00000000001;;;8.16;80.11
67430;BME280;54298;52.076;5.264;2023-05-27T04:17:14;102881.0;;;8.22;80.06
67430;BME280;54298;52.076;5.264;2023-05-27T04:18:50;102879.0;;;8.23;79.95
67430;BME280;54298;52.076;5.264;2023-05-27T04:22:10;102884.99999999999;;;8.25;79.97
67430;BME280;54298;52.076;5.264;2023-05-27T04:23:47;102879.0;;;8.24;80.14
67430;BME280;54298;52.076;5.264;2023-05-27T04:25:23;102883.99999999999;;;8.33;79.99
67430;BME280;54298;52.076;5.264;2023-05-27T04:26:59;102877.0;;;8.32;79.91
67430;BME280;54298;52.076;5.264;2023-05-27T04:30:11;102874.0;;;8.3;80.27
67430;BME280;54298;52.076;5.264;2023-05-27T04:31:47;102879.0;;;8.28;80.47
67430;BME280;54298;52.076;5.264;2023-05-27T04:33:23;102878.0;;;8.38;80.27
67430;BME280;54298;52.076;5.264;2023-05-27T04:36:36;102877.0;;;8.39;80.48
67430;BME280;54298;52.076;5.264;2023-05-27T04:38:12;102878.0;;;8.32;80.73
67430;BME280;54298;52.076;5.264;2023-05-27T04:39:48;102881.0;;;8.52;80.19
67430;BME280;54298;52.076;5.264;2023-05-27T04:43:00;102879.0;;;8.48;80.37
67430;BME280;54298;52.076;5.264;2023-05-27T04:44:36;102876.0;;;8.44;80.49
67430;BME280;54298;52.076;5.264;2023-05-27T04:46:12;102875.0;;;8.59;80.16
67430;BME280;54298;52.076;5.264;2023-05-27T04:47:49;102877.0;;;8.6;80.19
67430;BME280;54298;52.076;5.264;2023-05-27T04:51:02;102877.0;;;8.6;80.38
67430;BME280;54298;52.076;5.264;2023-05-27T04:52:38;102866.00000000001;;;8.81;79.89
67430;BME280;54298;52.076;5.264;2023-05-27T04:54:14;102861.99999999999;;;8.78;79.92
67430;BME280;54298;52.076;5.264;2023-05-27T04:57:26;102856.0;;;8.88;79.81
67430;BME280;54298;52.076;5.264;2023-05-27T04:59:03;102867.0;;;8.83;79.92
67430;BME280;54298;52.076;5.264;2023-05-27T05:00:39;102871.0;;;8.91;79.69
67430;BME280;54298;52.076;5.264;2023-05-27T05:03:51;102870.0;;;8.97;79.74
67430;BME280;54298;52.076;5.264;2023-05-27T05:05:27;102869.0;;;9.02;79.62
67430;BME280;54298;52.076;5.264;2023-05-27T05:07:03;102867.0;;;9.1;79.27
67430;BME280;54298;52.076;5.264;2023-05-27T05:08:39;102869.0;;;9.16;79.42
67430;BME280;54298;52.076;5.264;2023-05-27T05:11:52;102871.0;;;9.23;79.2
67430;BME280;54298;52.076;5.264;2023-05-27T05:13:28;102869.0;;;9.35;78.75
67430;BME280;54298;52.076;5.264;2023-05-27T05:15:06;102872.0;;;9.34;78.61
67430;BME280;54298;52.076;5.264;2023-05-27T05:18:18;102867.0;;;9.48;78.41
67430;BME280;54298;52.076;5.264;2023-05-27T05:19:54;102863.00000000001;;;9.52;78.62
67430;BME280;54298;52.076;5.264;2023-05-27T05:21:31;102857.0;;;9.56;78.36
67430;BME280;54298;52.076;5.264;2023-05-27T05:24:43;102858.0;;;9.72;77.78
67430;BME280;54298;52.076;5.264;2023-05-27T05:26:19;102855.0;;;9.66;78.16
67430;BME280;54298;52.076;5.264;2023-05-27T05:27:56;102858.0;;;9.66;77.72
67430;BME280;54298;52.076;5.264;2023-05-27T05:29:32;102856.0;;;9.78;77.3
67430;BME280;54298;52.076;5.264;2023-05-27T05:32:44;102856.0;;;9.92;77.2
67430;BME280;54298;52.076;5.264;2023-05-27T05:34:20;102854.0;;;9.84;77.37
67430;BME280;54298;52.076;5.264;2023-05-27T05:35:56;102852.0;;;10.0;76.95
67430;BME280;54298;52.076;5.264;2023-05-27T05:39:09;102854.0;;;9.98;76.86
67430;BME280;54298;52.076;5.264;2023-05-27T05:40:45;102851.0;;;10.07;76.62
67430;BME280;54298;52.076;5.264;2023-05-27T05:42:21;102847.0;;;10.21;76.25
67430;BME280;54298;52.076;5.264;2023-05-27T05:45:33;102846.0;;;10.38;75.74
67430;BME280;54298;52.076;5.264;2023-05-27T05:47:09;102846.0;;;10.43;75.69
67430;BME280;54298;52.076;5.264;2023-05-27T05:48:46;102843.0;;;10.44;75.36
67430;BME280;54298;52.076;5.264;2023-05-27T05:51:58;102836.99999999999;;;10.44;75.61
67430;BME280;54298;52.076;5.264;2023-05-27T05:53:34;102839.00000000001;;;10.41;75.58
67430;BME280;54298;52.076;5.264;2023-05-27T05:55:10;102842.0;;;10.49;75.36
67430;BME280;54298;52.076;5.264;2023-05-27T05:56:46;102845.0;;;10.55;75.37
67430;BME280;54298;52.076;5.264;2023-05-27T05:59:59;102842.0;;;10.82;74.55
67430;BME280;54298;52.076;5.264;2023-05-27T06:01:35;102846.0;;;10.89;74.61
67430;BME280;54298;52.076;5.264;2023-05-27T06:03:11;102849.0;;;10.92;74.47
67430;BME280;54298;52.076;5.264;2023-05-27T06:06:23;102843.0;;;10.93;74.42
67430;BME280;54298;52.076;5.264;2023-05-27T06:09:36;102842.0;;;11.16;73.52
67430;BME280;54298;52.076;5.264;2023-05-27T06:12:48;102843.0;;;11.24;73.24
67430;BME280;54298;52.076;5.264;2023-05-27T06:14:24;102839.00000000001;;;11.31;72.97
67430;BME280;54298;52.076;5.264;2023-05-27T06:16:00;102829.0;;;11.35;72.69
67430;BME280;54298;52.076;5.264;2023-05-27T06:19:13;102829.0;;;11.38;73.14
67430;BME280;54298;52.076;5.264;2023-05-27T06:20:49;102826.0;;;11.52;72.52
67430;BME280;54298;52.076;5.264;2023-05-27T06:22:25;102822.0;;;11.63;72.44
67430;BME280;54298;52.076;5.264;2023-05-27T06:24:01;102817.0;;;11.61;72.11
67430;BME280;54298;52.076;5.264;2023-05-27T06:27:13;102823.0;;;11.54;72.45
67430;BME280;54298;52.076;5.264;2023-05-27T06:28:50;102824.0;;;11.61;72.44
67430;BME280;54298;52.076;5.264;2023-05-27T06:30:26;102807.0;;;11.66;72.25
67430;BME280;54298;52.076;5.264;2023-05-27T06:33:40;102800.0;;;11.88;71.44
67430;BME280;54298;52.076;5.264;2023-05-27T06:35:16;102803.0;;;12.0;71.36
67430;BME280;54298;52.076;5.264;2023-05-27T06:36:53;102803.0;;;12.11;70.86
67430;BME280;54298;52.076;5.264;2023-05-27T06:40:06;102802.0;;;12.19;70.91
67430;BME280;54298;52.076;5.264;2023-05-27T06:41:42;102802.0;;;12.36;70.75
67430;BME280;54298;52.076;5.264;2023-05-27T06:43:18;102803.0;;;12.51;70.33
67430;BME280;54298;52.076;5.264;2023-05-27T06:44:54;102800.0;;;12.56;69.78
67430;BME280;54298;52.076;5.264;2023-05-27T06:48:07;102795.0;;;12.64;69.64
67430;BME280;54298;52.076;5.264;2023-05-27T06:49:43;102790.00000000001;;;12.76;69.16
67430;BME280;54298;52.076;5.264;2023-05-27T06:51:20;102792.0;;;12.96;68.59
67430;BME280;54298;52.076;5.264;2023-05-27T06:54:33;102795.0;;;12.77;69.39
67430;BME280;54298;52.076;5.264;2023-05-27T06:56:09;102786.99999999999;;;12.88;68.36
67430;BME280;54298;52.076;5.264;2023-05-27T06:57:45;102781.0;;;13.05;68.19
67430;BME280;54298;52.076;5.264;2023-05-27T07:00:57;102768.0;;;13.06;67.77
67430;BME280;54298;52.076;5.264;2023-05-27T07:02:33;102772.0;;;13.14;67.41
67430;BME280;54298;52.076;5.264;2023-05-27T07:04:09;102776.0;;;13.35;67.12
67430;BME280;54298;52.076;5.264;2023-05-27T07:05:45;102770.0;;;13.39;67.41
67430;BME280;54298;52.076;5.264;2023-05-27T07:08:57;102775.0;;;13.38;66.74
67430;BME280;54298;52.076;5.264;2023-05-27T07:10:33;102771.0;;;13.58;66.83
67430;BME280;54298;52.076;5.264;2023-05-27T07:12:09;102763.00000000001;;;13.69;66.36
67430;BME280;54298;52.076;5.264;2023-05-27T07:15:24;102766.00000000001;;;13.74;65.59
67430;BME280;54298;52.076;5.264;2023-05-27T07:17:01;102764.00000000001;;;13.84;65.16
67430;BME280;54298;52.076;5.264;2023-05-27T07:18:37;102761.99999999999;;;13.96;64.64
67430;BME280;54298;52.076;5.264;2023-05-27T07:21:49;102757.0;;;14.06;64.64
67430;BME280;54298;52.076;5.264;2023-05-27T07:23:25;102761.99999999999;;;14.07;64.41
67430;BME280;54298;52.076;5.264;2023-05-27T07:25:02;102758.0;;;13.96;64.27
67430;BME280;54298;52.076;5.264;2023-05-27T07:28:15;102764.00000000001;;;14.03;64.52
67430;BME280;54298;52.076;5.264;2023-05-27T07:29:51;102759.99999999999;;;14.26;64.2
67430;BME280;54298;52.076;5.264;2023-05-27T07:31:28;102758.0;;;14.32;64.25
67430;BME280;54298;52.076;5.264;2023-05-27T07:33:04;102763.00000000001;;;14.41;64.5
67430;BME280;54298;52.076;5.264;2023-05-27T07:36:17;102765.00000000001;;;14.43;63.36
67430;BME280;54298;52.076;5.264;2023-05-27T07:37:53;102765.00000000001;;;14.39;62.83
67430;BME280;54298;52.076;5.264;2023-05-27T07:39:29;102767.0;;;14.35;63.1
67430;BME280;54298;52.076;5.264;2023-05-27T07:42:41;102759.99999999999;;;14.25;63.2
67430;BME280;54298;52.076;5.264;2023-05-27T07:44:18;102764.00000000001;;;14.41;62.91
67430;BME280;54298;52.076;5.264;2023-05-27T07:45:54;102752.0;;;14.34;63.51
67430;BME280;54298;52.076;5.264;2023-05-27T07:49:06;102754.0;;;14.47;63.1
67430;BME280;54298;52.076;5.264;2023-05-27T07:50:42;102753.0;;;14.4;63.15
67430;BME280;54298;52.076;5.264;2023-05-27T07:52:18;102751.0;;;14.33;63.7
67430;BME280;54298;52.076;5.264;2023-05-27T07:53:55;102747.0;;;14.55;63.2
67430;BME280;54298;52.076;5.264;2023-05-27T07:57:07;102746.0;;;14.63;62.79
67430;BME280;54298;52.076;5.264;2023-05-27T07:58:43;102742.0;;;14.56;62.64
67430;BME280;54298;52.076;5.264;2023-05-27T08:00:19;102740.00000000001;;;14.8;62.45
67430;BME280;54298;52.076;5.264;2023-05-27T08:03:32;102733.99999999999;;;14.8;61.81
67430;BME280;54298;52.076;5.264;2023-05-27T08:05:08;102727.0;;;14.98;61.46
67430;BME280;54298;52.076;5.264;2023-05-27T08:06:45;102728.0;;;15.04;61.48
67430;BME280;54298;52.076;5.264;2023-05-27T08:09:57;102721.0;;;15.26;60.86
67430;BME280;54298;52.076;5.264;2023-05-27T08:11:34;102720.0;;;15.24;61.06
67430;BME280;54298;52.076;5.264;2023-05-27T08:13:10;102721.0;;;15.31;59.88
67430;BME280;54298;52.076;5.264;2023-05-27T08:16:24;102714.00000000001;;;15.49;59.66
67430;BME280;54298;52.076;5.264;2023-05-27T08:18:00;102711.99999999999;;;15.19;60.37
67430;BME280;54298;52.076;5.264;2023-05-27T08:19:36;102714.00000000001;;;15.43;60.39
67430;BME280;54298;52.076;5.264;2023-05-27T08:21:13;102704.0;;;15.43;59.21
67430;BME280;54298;52.076;5.264;2023-05-27T08:24:25;102702.0;;;15.42;59.21
67430;BME280;54298;52.076;5.264;2023-05-27T08:26:01;102698.0;;;15.46;58.77
67430;BME280;54298;52.076;5.264;2023-05-27T08:27:46;102701.0;;;15.41;59.07
67430;BME280;54298;52.076;5.264;2023-05-27T08:31:01;102703.0;;;15.62;59.3
67430;BME280;54298;52.076;5.264;2023-05-27T08:32:37;102702.0;;;15.74;59.04
67430;BME280;54298;52.076;5.264;2023-05-27T08:34:13;102698.0;;;15.76;57.57
67430;BME280;54298;52.076;5.264;2023-05-27T08:35:49;102692.0;;;15.9;57.89
67430;BME280;54298;52.076;5.264;2023-05-27T08:39:01;102693.0;;;15.98;57.73
67430;BME280;54298;52.076;5.264;2023-05-27T08:40:38;102688.00000000001;;;16.03;56.74
67430;BME280;54298;52.076;5.264;2023-05-27T08:42:14;102684.99999999999;;;16.18;56.13
67430;BME280;54298;52.076;5.264;2023-05-27T08:45:27;102683.99999999999;;;16.29;56.8
67430;BME280;54298;52.076;5.264;2023-05-27T08:47:03;102678.0;;;16.37;57.07
67430;BME280;54298;52.076;5.264;2023-05-27T08:48:41;102674.0;;;16.47;56.57
67430;BME280;54298;52.076;5.264;2023-05-27T08:51:54;102678.0;;;16.2;56.35
67430;BME280;54298;52.076;5.264;2023-05-27T08:53:32;102668.0;;;16.46;55.46
67430;BME280;54298;52.076;5.264;2023-05-27T08:55:09;102664.00000000001;;;16.52;55.05
67430;BME280;54298;52.076;5.264;2023-05-27T08:56:49;102658.99999999999;;;16.61;55.19
67430;BME280;54298;52.076;5.264;2023-05-27T09:00:07;102655.0;;;16.54;55.66
67430;BME280;54298;52.076;5.264;2023-05-27T09:01:45;102654.0;;;16.73;55.8
67430;BME280;54298;52.076;5.264;2023-05-27T09:03:21;102654.0;;;16.78;55.71
67430;BME280;54298;52.076;5.264;2023-05-27T09:06:33;102659.99999999999;;;16.89;54.64
67430;BME280;54298;52.076;5.264;2023-05-27T09:08:09;102653.0;;;16.82;53.57
67430;BME280;54298;52.076;5.264;2023-05-27T09:09:54;102648.0;;;17.0;53.65
67430;BME280;54298;52.076;5.264;2023-05-27T09:11:31;102648.0;;;16.87;54.25
67430;BME280;54298;52.076;5.264;2023-05-27T09:14:44;102641.00000000001;;;16.86;54.11
67430;BME280;54298;52.076;5.264;2023-05-27T09:16:21;102645.0;;;16.93;54.39
67430;BME280;54298;52.076;5.264;2023-05-27T09:17:57;102645.0;;;17.07;53.19
67430;BME280;54298;52.076;5.264;2023-05-27T09:21:11;102642.0;;;17.27;52.57
67430;BME280;54298;52.076;5.264;2023-05-27T09:22:47;102640.00000000001;;;17.31;53.01
67430;BME280;54298;52.076;5.264;2023-05-27T09:24:24;102639.00000000001;;;17.41;53.08
67430;BME280;54298;52.076;5.264;2023-05-27T09:26:00;102628.0;;;17.5;51.91
67430;BME280;54298;52.076;5.264;2023-05-27T09:29:13;102630.0;;;17.64;51.74
67430;BME280;54298;52.076;5.264;2023-05-27T09:30:51;102631.0;;;17.64;51.68
67430;BME280;54298;52.076;5.264;2023-05-27T09:32:30;102638.00000000001;;;17.72;51.7
67430;BME280;54298;52.076;5.264;2023-05-27T09:35:46;102634.99999999999;;;17.84;50.74
67430;BME280;54298;52.076;5.264;2023-05-27T09:37:25;102629.0;;;17.81;50.48
67430;BME280;54298;52.076;5.264;2023-05-27T09:39:02;102629.0;;;18.04;51.09
67430;BME280;54298;52.076;5.264;2023-05-27T09:40:38;102624.0;;;18.11;50.47
67430;BME280;54298;52.076;5.264;2023-05-27T09:43:53;102622.0;;;18.18;50.06
67430;BME280;54298;52.076;5.264;2023-05-27T09:45:30;102625.0;;;18.28;50.33
67430;BME280;54298;52.076;5.264;2023-05-27T09:47:08;102629.0;;;18.43;49.39
67430;BME280;54298;52.076;5.264;2023-05-27T09:50:21;102624.0;;;18.36;48.64
67430;BME280;54298;52.076;5.264;2023-05-27T09:51:58;102620.0;;;18.56;48.3
67430;BME280;54298;52.076;5.264;2023-05-27T09:53:36;102617.0;;;18.5;47.28
67430;BME280;54298;52.076;5.264;2023-05-27T09:55:15;102609.99999999999;;;18.45;47.79
67430;BME280;54298;52.076;5.264;2023-05-27T09:58:28;102608.99999999999;;;18.55;48.76
67430;BME280;54298;52.076;5.264;2023-05-27T10:00:06;102605.0;;;18.61;48.26
67430;BME280;54298;52.076;5.264;2023-05-27T10:01:45;102608.0;;;18.66;48.33
67430;BME280;54298;52.076;5.264;2023-05-27T10:04:58;102613.00000000001;;;18.38;48.17
67430;BME280;54298;52.076;5.264;2023-05-27T10:06:37;102607.0;;;18.55;48.1
67430;BME280;54298;52.076;5.264;2023-05-27T10:08:14;102595.0;;;18.57;47.67
67430;BME280;54298;52.076;5.264;2023-05-27T10:09:51;102594.0;;;18.56;48.03
67430;BME280;54298;52.076;5.264;2023-05-27T10:13:07;102593.0;;;18.52;47.46
67430;BME280;54298;52.076;5.264;2023-05-27T10:14:44;102591.00000000001;;;18.82;47.8
67430;BME280;54298;52.076;5.264;2023-05-27T10:16:21;102591.00000000001;;;18.84;47.0
67430;BME280;54298;52.076;5.264;2023-05-27T10:19:56;102589.00000000001;;;18.62;46.7
67430;BME280;54298;52.076;5.264;2023-05-27T10:21:32;102583.99999999999;;;18.84;47.54
67430;BME280;54298;52.076;5.264;2023-05-27T10:23:09;102582.0;;;18.89;47.88
67430;BME280;54298;52.076;5.264;2023-05-27T10:24:46;102583.0;;;18.97;47.33
67430;BME280;54298;52.076;5.264;2023-05-27T10:28:07;102582.0;;;18.93;45.76
67430;BME280;54298;52.076;5.264;2023-05-27T10:29:44;102578.0;;;18.93;45.53
67430;BME280;54298;52.076;5.264;2023-05-27T10:31:20;102574.0;;;18.91;46.71
67430;BME280;54298;52.076;5.264;2023-05-27T10:32:56;102570.0;;;19.05;46.92
67430;BME280;54298;52.076;5.264;2023-05-27T10:36:12;102567.0;;;19.18;47.17
67430;BME280;54298;52.076;5.264;2023-05-27T10:37:49;102569.0;;;19.47;46.32
67430;BME280;54298;52.076;5.264;2023-05-27T10:39:26;102572.0;;;19.43;45.11
67430;BME280;54298;52.076;5.264;2023-05-27T10:42:40;102567.0;;;19.5;45.12
67430;BME280;54298;52.076;5.264;2023-05-27T10:44:25;102564.00000000001;;;19.52;45.18
67430;BME280;54298;52.076;5.264;2023-05-27T10:46:04;102558.99999999999;;;19.57;44.29
67430;BME280;54298;52.076;5.264;2023-05-27T10:47:45;102558.0;;;19.59;43.66
67430;BME280;54298;52.076;5.264;2023-05-27T10:51:01;102552.0;;;19.66;44.38